sensor_id;sensor_type;location;lat;lon;timestamp;P1;durP1;ratioP1;P2;durP2;ratioP2
42602;SDS011;28233;55.748;48.752;2023-05-18T00:01:53;7.82;;;2.22;;
42602;SDS011;28233;55.748;48.752;2023-05-18T00:03:56;7.50;;;1.58;;
42602;SDS011;28233;55.748;48.752;2023-05-18T00:05:59;7.38;;;1.83;;
42602;SDS011;28233;55.748;48.752;2023-05-18T00:08:05;4.40;;;1.98;;
42602;SDS011;28233;55.748;48.752;2023-05-18T00:10:10;5.20;;;1.80;;
42602;SDS011;28233;55.748;48.752;2023-05-18T00:12:13;5.20;;;1.92;;
42602;SDS011;28233;55.748;48.752;2023-05-18T00:14:16;3.80;;;1.40;;
42602;SDS011;28233;55.748;48.752;2023-05-18T00:16:18;4.45;;;1.58;;
42602;SDS011;28233;55.748;48.752;2023-05-18T00:18:22;6.45;;;2.40;;
42602;SDS011;28233;55.748;48.752;2023-05-18T00:20:25;3.10;;;1.45;;
42602;SDS011;28233;55.748;48.752;2023-05-18T00:22:28;3.78;;;1.92;;
42602;SDS011;28233;55.748;48.752;2023-05-18T00:24:31;3.10;;;1.55;;
42602;SDS011;28233;55.748;48.752;2023-05-18T00:26:39;4.25;;;1.75;;
42602;SDS011;28233;55.748;48.752;2023-05-18T00:28:44;6.20;;;1.85;;
42602;SDS011;28233;55.748;48.752;2023-05-18T00:30:47;4.22;;;1.83;;
42602;SDS011;28233;55.748;48.752;2023-05-18T00:32:50;5.97;;;1.98;;
42602;SDS011;28233;55.748;48.752;2023-05-18T00:34:53;4.65;;;1.38;;
42602;SDS011;28233;55.748;48.752;2023-05-18T00:36:55;4.20;;;1.58;;
42602;SDS011;28233;55.748;48.752;2023-05-18T00:38:58;4.55;;;2.00;;
42602;SDS011;28233;55.748;48.752;2023-05-18T00:41:02;5.57;;;2.00;;
42602;SDS011;28233;55.748;48.752;2023-05-18T00:43:05;3.13;;;1.35;;
42602;SDS011;28233;55.748;48.752;2023-05-18T00:45:07;3.25;;;1.70;;
42602;SDS011;28233;55.748;48.752;2023-05-18T00:47:10;4.32;;;1.90;;
42602;SDS011;28233;55.748;48.752;2023-05-18T00:49:13;7.15;;;2.03;;
42602;SDS011;28233;55.748;48.752;2023-05-18T00:51:20;7.00;;;1.88;;
42602;SDS011;28233;55.748;48.752;2023-05-18T00:53:27;5.43;;;1.52;;
42602;SDS011;28233;55.748;48.752;2023-05-18T00:55:31;1.77;;;0.90;;
42602;SDS011;28233;55.748;48.752;2023-05-18T00:57:34;5.15;;;1.77;;
42602;SDS011;28233;55.748;48.752;2023-05-18T00:59:38;5.00;;;1.60;;
42602;SDS011;28233;55.748;48.752;2023-05-18T01:01:42;3.28;;;1.27;;
42602;SDS011;28233;55.748;48.752;2023-05-18T01:03:47;5.40;;;2.15;;
42602;SDS011;28233;55.748;48.752;2023-05-18T01:05:50;5.75;;;1.55;;
42602;SDS011;28233;55.748;48.752;2023-05-18T01:07:57;3.20;;;1.52;;
42602;SDS011;28233;55.748;48.752;2023-05-18T01:09:59;3.03;;;1.40;;
42602;SDS011;28233;55.748;48.752;2023-05-18T01:16:37;2.80;;;1.23;;
42602;SDS011;28233;55.748;48.752;2023-05-18T01:18:46;6.75;;;1.75;;
42602;SDS011;28233;55.748;48.752;2023-05-18T01:21:10;3.30;;;1.67;;
42602;SDS011;28233;55.748;48.752;2023-05-18T01:28:17;3.83;;;1.77;;
42602;SDS011;28233;55.748;48.752;2023-05-18T01:30:22;2.92;;;1.35;;
42602;SDS011;28233;55.748;48.752;2023-05-18T01:32:25;6.47;;;1.70;;
42602;SDS011;28233;55.748;48.752;2023-05-18T01:34:28;5.18;;;1.48;;
42602;SDS011;28233;55.748;48.752;2023-05-18T01:36:31;5.20;;;1.90;;
42602;SDS011;28233;55.748;48.752;2023-05-18T01:38:34;5.25;;;1.70;;
42602;SDS011;28233;55.748;48.752;2023-05-18T01:40:45;3.83;;;1.80;;
42602;SDS011;28233;55.748;48.752;2023-05-18T01:42:58;4.78;;;1.40;;
42602;SDS011;28233;55.748;48.752;2023-05-18T01:45:14;5.30;;;1.50;;
42602;SDS011;28233;55.748;48.752;2023-05-18T01:47:23;6.25;;;1.73;;
42602;SDS011;28233;55.748;48.752;2023-05-18T01:51:45;6.38;;;2.42;;
42602;SDS011;28233;55.748;48.752;2023-05-18T01:53:52;2.50;;;1.70;;
42602;SDS011;28233;55.748;48.752;2023-05-18T01:56:00;10.85;;;1.92;;
42602;SDS011;28233;55.748;48.752;2023-05-18T01:58:06;3.97;;;1.63;;
42602;SDS011;28233;55.748;48.752;2023-05-18T02:00:11;2.97;;;1.73;;
42602;SDS011;28233;55.748;48.752;2023-05-18T02:02:14;3.22;;;1.50;;
42602;SDS011;28233;55.748;48.752;2023-05-18T02:04:18;4.80;;;1.85;;
42602;SDS011;28233;55.748;48.752;2023-05-18T02:06:21;2.65;;;1.55;;
42602;SDS011;28233;55.748;48.752;2023-05-18T02:08:24;7.30;;;1.98;;
42602;SDS011;28233;55.748;48.752;2023-05-18T02:10:27;3.88;;;1.83;;
42602;SDS011;28233;55.748;48.752;2023-05-18T02:12:30;4.38;;;1.98;;
42602;SDS011;28233;55.748;48.752;2023-05-18T02:14:33;6.80;;;1.85;;
42602;SDS011;28233;55.748;48.752;2023-05-18T02:16:36;7.65;;;1.73;;
42602;SDS011;28233;55.748;48.752;2023-05-18T02:18:39;2.72;;;1.42;;
42602;SDS011;28233;55.748;48.752;2023-05-18T02:20:43;5.75;;;1.42;;
42602;SDS011;28233;55.748;48.752;2023-05-18T02:22:50;5.15;;;1.90;;
42602;SDS011;28233;55.748;48.752;2023-05-18T02:24:55;6.28;;;1.90;;
42602;SDS011;28233;55.748;48.752;2023-05-18T02:26:58;6.53;;;2.13;;
42602;SDS011;28233;55.748;48.752;2023-05-18T02:29:00;4.45;;;1.98;;
42602;SDS011;28233;55.748;48.752;2023-05-18T02:31:04;4.75;;;1.73;;
42602;SDS011;28233;55.748;48.752;2023-05-18T02:33:08;3.25;;;1.63;;
42602;SDS011;28233;55.748;48.752;2023-05-18T02:35:12;3.28;;;1.45;;
42602;SDS011;28233;55.748;48.752;2023-05-18T02:37:15;3.10;;;1.52;;
42602;SDS011;28233;55.748;48.752;2023-05-18T02:39:18;4.65;;;1.50;;
42602;SDS011;28233;55.748;48.752;2023-05-18T02:41:20;4.22;;;1.30;;
42602;SDS011;28233;55.748;48.752;2023-05-18T02:43:23;4.63;;;1.77;;
42602;SDS011;28233;55.748;48.752;2023-05-18T02:45:26;13.50;;;2.28;;
42602;SDS011;28233;55.748;48.752;2023-05-18T02:47:29;5.20;;;1.90;;
42602;SDS011;28233;55.748;48.752;2023-05-18T02:49:32;4.47;;;1.60;;
42602;SDS011;28233;55.748;48.752;2023-05-18T02:51:35;6.55;;;1.80;;
42602;SDS011;28233;55.748;48.752;2023-05-18T02:53:38;6.43;;;1.80;;
42602;SDS011;28233;55.748;48.752;2023-05-18T02:55:41;5.43;;;1.90;;
42602;SDS011;28233;55.748;48.752;2023-05-18T02:57:44;6.40;;;1.52;;
42602;SDS011;28233;55.748;48.752;2023-05-18T02:59:48;6.88;;;1.45;;
42602;SDS011;28233;55.748;48.752;2023-05-18T03:01:51;3.95;;;1.60;;
42602;SDS011;28233;55.748;48.752;2023-05-18T03:03:54;9.20;;;1.75;;
42602;SDS011;28233;55.748;48.752;2023-05-18T03:05:59;4.30;;;1.52;;
42602;SDS011;28233;55.748;48.752;2023-05-18T03:08:06;2.65;;;1.50;;
42602;SDS011;28233;55.748;48.752;2023-05-18T03:10:11;4.10;;;1.67;;
42602;SDS011;28233;55.748;48.752;2023-05-18T03:12:14;4.55;;;1.92;;
42602;SDS011;28233;55.748;48.752;2023-05-18T03:14:17;6.60;;;2.30;;
42602;SDS011;28233;55.748;48.752;2023-05-18T03:16:19;8.65;;;2.47;;
42602;SDS011;28233;55.748;48.752;2023-05-18T03:18:22;4.88;;;1.45;;
42602;SDS011;28233;55.748;48.752;2023-05-18T03:20:26;4.47;;;1.67;;
42602;SDS011;28233;55.748;48.752;2023-05-18T03:22:31;4.53;;;1.55;;
42602;SDS011;28233;55.748;48.752;2023-05-18T03:24:34;3.42;;;1.40;;
42602;SDS011;28233;55.748;48.752;2023-05-18T03:26:41;3.92;;;1.27;;
42602;SDS011;28233;55.748;48.752;2023-05-18T03:28:45;5.15;;;1.83;;
42602;SDS011;28233;55.748;48.752;2023-05-18T03:30:48;6.63;;;1.27;;
42602;SDS011;28233;55.748;48.752;2023-05-18T03:32:51;6.05;;;1.88;;
42602;SDS011;28233;55.748;48.752;2023-05-18T03:34:54;4.53;;;1.90;;
42602;SDS011;28233;55.748;48.752;2023-05-18T03:36:57;4.22;;;1.42;;
42602;SDS011;28233;55.748;48.752;2023-05-18T03:39:01;4.25;;;1.38;;
42602;SDS011;28233;55.748;48.752;2023-05-18T03:41:03;4.38;;;1.65;;
42602;SDS011;28233;55.748;48.752;2023-05-18T03:43:06;4.55;;;1.48;;
42602;SDS011;28233;55.748;48.752;2023-05-18T03:45:09;3.88;;;1.63;;
42602;SDS011;28233;55.748;48.752;2023-05-18T03:47:13;5.15;;;1.55;;
42602;SDS011;28233;55.748;48.752;2023-05-18T03:49:16;3.85;;;1.80;;
42602;SDS011;28233;55.748;48.752;2023-05-18T03:51:19;2.70;;;1.50;;
42602;SDS011;28233;55.748;48.752;2023-05-18T03:53:22;4.72;;;1.50;;
42602;SDS011;28233;55.748;48.752;2023-05-18T03:55:24;3.72;;;1.40;;
42602;SDS011;28233;55.748;48.752;2023-05-18T03:57:27;3.85;;;1.40;;
42602;SDS011;28233;55.748;48.752;2023-05-18T03:59:30;4.28;;;2.03;;
42602;SDS011;28233;55.748;48.752;2023-05-18T04:01:33;5.38;;;1.83;;
42602;SDS011;28233;55.748;48.752;2023-05-18T04:03:36;5.32;;;1.40;;
42602;SDS011;28233;55.748;48.752;2023-05-18T04:05:42;4.97;;;1.30;;
42602;SDS011;28233;55.748;48.752;2023-05-18T04:07:45;3.60;;;1.52;;
42602;SDS011;28233;55.748;48.752;2023-05-18T04:09:52;4.88;;;1.52;;
42602;SDS011;28233;55.748;48.752;2023-05-18T04:11:56;4.28;;;1.55;;
42602;SDS011;28233;55.748;48.752;2023-05-18T04:13:59;11.98;;;1.92;;
42602;SDS011;28233;55.748;48.752;2023-05-18T04:16:02;3.80;;;0.98;;
42602;SDS011;28233;55.748;48.752;2023-05-18T04:18:05;12.85;;;1.80;;
42602;SDS011;28233;55.748;48.752;2023-05-18T04:20:12;5.72;;;1.45;;
42602;SDS011;28233;55.748;48.752;2023-05-18T04:22:16;5.97;;;1.25;;
42602;SDS011;28233;55.748;48.752;2023-05-18T04:24:19;2.40;;;1.00;;
42602;SDS011;28233;55.748;48.752;2023-05-18T04:26:23;4.40;;;1.70;;
42602;SDS011;28233;55.748;48.752;2023-05-18T04:28:26;4.25;;;1.17;;
42602;SDS011;28233;55.748;48.752;2023-05-18T04:30:29;4.53;;;1.98;;
42602;SDS011;28233;55.748;48.752;2023-05-18T04:32:33;5.70;;;1.00;;
42602;SDS011;28233;55.748;48.752;2023-05-18T04:34:37;5.13;;;1.27;;
42602;SDS011;28233;55.748;48.752;2023-05-18T04:36:40;3.67;;;1.00;;
42602;SDS011;28233;55.748;48.752;2023-05-18T04:38:45;1.80;;;1.35;;
42602;SDS011;28233;55.748;48.752;2023-05-18T04:40:48;2.70;;;0.80;;
42602;SDS011;28233;55.748;48.752;2023-05-18T04:42:51;2.13;;;0.98;;
42602;SDS011;28233;55.748;48.752;2023-05-18T04:44:54;5.22;;;1.50;;
42602;SDS011;28233;55.748;48.752;2023-05-18T04:46:57;12.40;;;1.27;;
42602;SDS011;28233;55.748;48.752;2023-05-18T04:49:00;5.30;;;1.40;;
42602;SDS011;28233;55.748;48.752;2023-05-18T04:51:03;5.40;;;1.20;;
42602;SDS011;28233;55.748;48.752;2023-05-18T04:53:06;3.28;;;1.27;;
42602;SDS011;28233;55.748;48.752;2023-05-18T04:55:10;4.55;;;1.00;;
42602;SDS011;28233;55.748;48.752;2023-05-18T04:57:12;3.25;;;1.25;;
42602;SDS011;28233;55.748;48.752;2023-05-18T04:59:15;3.00;;;1.05;;
42602;SDS011;28233;55.748;48.752;2023-05-18T05:01:18;2.28;;;0.98;;
42602;SDS011;28233;55.748;48.752;2023-05-18T05:03:21;4.50;;;1.60;;
42602;SDS011;28233;55.748;48.752;2023-05-18T05:05:24;2.90;;;1.02;;
42602;SDS011;28233;55.748;48.752;2023-05-18T05:07:28;2.03;;;1.00;;
42602;SDS011;28233;55.748;48.752;2023-05-18T05:09:31;3.22;;;1.20;;
42602;SDS011;28233;55.748;48.752;2023-05-18T05:11:34;3.72;;;1.23;;
42602;SDS011;28233;55.748;48.752;2023-05-18T05:13:37;2.60;;;1.13;;
42602;SDS011;28233;55.748;48.752;2023-05-18T05:15:39;2.63;;;1.05;;
42602;SDS011;28233;55.748;48.752;2023-05-18T05:17:42;5.15;;;0.90;;
42602;SDS011;28233;55.748;48.752;2023-05-18T05:19:45;4.43;;;1.20;;
42602;SDS011;28233;55.748;48.752;2023-05-18T05:21:48;5.30;;;1.38;;
42602;SDS011;28233;55.748;48.752;2023-05-18T05:23:51;1.85;;;1.13;;
42602;SDS011;28233;55.748;48.752;2023-05-18T05:25:54;3.92;;;1.30;;
42602;SDS011;28233;55.748;48.752;2023-05-18T05:27:56;4.90;;;1.25;;
42602;SDS011;28233;55.748;48.752;2023-05-18T05:29:59;3.72;;;1.10;;
42602;SDS011;28233;55.748;48.752;2023-05-18T05:32:06;3.70;;;1.13;;
42602;SDS011;28233;55.748;48.752;2023-05-18T05:34:09;2.35;;;1.42;;
42602;SDS011;28233;55.748;48.752;2023-05-18T05:36:13;2.72;;;1.30;;
42602;SDS011;28233;55.748;48.752;2023-05-18T05:38:15;1.80;;;0.80;;
42602;SDS011;28233;55.748;48.752;2023-05-18T05:40:18;6.22;;;1.50;;
42602;SDS011;28233;55.748;48.752;2023-05-18T05:42:21;2.72;;;0.70;;
42602;SDS011;28233;55.748;48.752;2023-05-18T05:44:24;3.38;;;1.27;;
42602;SDS011;28233;55.748;48.752;2023-05-18T05:46:27;3.63;;;1.05;;
42602;SDS011;28233;55.748;48.752;2023-05-18T05:48:30;4.38;;;1.15;;
42602;SDS011;28233;55.748;48.752;2023-05-18T05:50:33;6.80;;;0.90;;
42602;SDS011;28233;55.748;48.752;2023-05-18T05:52:36;6.93;;;1.15;;
42602;SDS011;28233;55.748;48.752;2023-05-18T05:54:39;2.70;;;0.80;;
42602;SDS011;28233;55.748;48.752;2023-05-18T05:56:43;2.17;;;0.70;;
42602;SDS011;28233;55.748;48.752;2023-05-18T05:58:45;3.15;;;1.00;;
42602;SDS011;28233;55.748;48.752;2023-05-18T06:00:48;5.57;;;1.27;;
42602;SDS011;28233;55.748;48.752;2023-05-18T06:02:51;3.80;;;1.20;;
42602;SDS011;28233;55.748;48.752;2023-05-18T06:04:54;3.83;;;0.70;;
42602;SDS011;28233;55.748;48.752;2023-05-18T06:06:58;3.30;;;0.80;;
42602;SDS011;28233;55.748;48.752;2023-05-18T06:09:00;6.05;;;1.73;;
42602;SDS011;28233;55.748;48.752;2023-05-18T06:11:04;3.42;;;1.10;;
42602;SDS011;28233;55.748;48.752;2023-05-18T06:13:25;7.50;;;1.38;;
42602;SDS011;28233;55.748;48.752;2023-05-18T06:15:28;2.80;;;0.85;;
42602;SDS011;28233;55.748;48.752;2023-05-18T06:17:31;5.50;;;1.45;;
42602;SDS011;28233;55.748;48.752;2023-05-18T06:19:34;5.30;;;1.30;;
42602;SDS011;28233;55.748;48.752;2023-05-18T06:21:37;5.93;;;1.20;;
42602;SDS011;28233;55.748;48.752;2023-05-18T06:23:40;2.22;;;0.95;;
42602;SDS011;28233;55.748;48.752;2023-05-18T06:25:43;4.97;;;0.80;;
42602;SDS011;28233;55.748;48.752;2023-05-18T06:27:46;5.78;;;1.42;;
42602;SDS011;28233;55.748;48.752;2023-05-18T06:29:49;5.35;;;1.23;;
42602;SDS011;28233;55.748;48.752;2023-05-18T06:31:54;8.40;;;1.63;;
42602;SDS011;28233;55.748;48.752;2023-05-18T06:37:44;3.65;;;1.08;;
42602;SDS011;28233;55.748;48.752;2023-05-18T06:39:48;5.30;;;1.70;;
42602;SDS011;28233;55.748;48.752;2023-05-18T06:41:51;6.15;;;1.67;;
42602;SDS011;28233;55.748;48.752;2023-05-18T06:43:53;5.82;;;0.98;;
42602;SDS011;28233;55.748;48.752;2023-05-18T06:45:57;5.15;;;1.48;;
42602;SDS011;28233;55.748;48.752;2023-05-18T06:48:00;2.03;;;1.08;;
42602;SDS011;28233;55.748;48.752;2023-05-18T06:50:03;2.17;;;1.50;;
42602;SDS011;28233;55.748;48.752;2023-05-18T06:52:06;4.03;;;0.77;;
42602;SDS011;28233;55.748;48.752;2023-05-18T06:54:11;3.28;;;1.02;;
42602;SDS011;28233;55.748;48.752;2023-05-18T06:56:15;2.25;;;1.10;;
42602;SDS011;28233;55.748;48.752;2023-05-18T06:58:18;5.60;;;1.30;;
42602;SDS011;28233;55.748;48.752;2023-05-18T07:00:21;2.88;;;0.88;;
42602;SDS011;28233;55.748;48.752;2023-05-18T07:02:25;15.30;;;1.00;;
42602;SDS011;28233;55.748;48.752;2023-05-18T07:04:27;0.95;;;0.73;;
42602;SDS011;28233;55.748;48.752;2023-05-18T07:06:30;2.92;;;1.20;;
42602;SDS011;28233;55.748;48.752;2023-05-18T07:08:33;5.03;;;0.93;;
42602;SDS011;28233;55.748;48.752;2023-05-18T07:10:38;2.42;;;1.00;;
42602;SDS011;28233;55.748;48.752;2023-05-18T07:12:41;1.10;;;0.68;;
42602;SDS011;28233;55.748;48.752;2023-05-18T07:14:43;2.53;;;0.90;;
42602;SDS011;28233;55.748;48.752;2023-05-18T07:16:46;4.25;;;1.08;;
42602;SDS011;28233;55.748;48.752;2023-05-18T07:18:49;2.22;;;0.95;;
42602;SDS011;28233;55.748;48.752;2023-05-18T07:20:52;3.67;;;1.08;;
42602;SDS011;28233;55.748;48.752;2023-05-18T07:22:55;3.47;;;1.40;;
42602;SDS011;28233;55.748;48.752;2023-05-18T07:24:57;3.85;;;0.88;;
42602;SDS011;28233;55.748;48.752;2023-05-18T07:27:02;2.53;;;0.80;;
42602;SDS011;28233;55.748;48.752;2023-05-18T07:29:05;2.67;;;0.70;;
42602;SDS011;28233;55.748;48.752;2023-05-18T07:31:08;6.60;;;1.50;;
42602;SDS011;28233;55.748;48.752;2023-05-18T07:33:11;2.78;;;1.00;;
42602;SDS011;28233;55.748;48.752;2023-05-18T07:35:14;3.65;;;0.93;;
42602;SDS011;28233;55.748;48.752;2023-05-18T07:37:18;13.02;;;1.42;;
42602;SDS011;28233;55.748;48.752;2023-05-18T07:39:20;4.38;;;1.27;;
42602;SDS011;28233;55.748;48.752;2023-05-18T07:41:29;1.70;;;0.95;;
42602;SDS011;28233;55.748;48.752;2023-05-18T07:43:33;10.68;;;1.10;;
42602;SDS011;28233;55.748;48.752;2023-05-18T07:45:35;5.65;;;1.10;;
42602;SDS011;28233;55.748;48.752;2023-05-18T07:47:38;5.38;;;1.23;;
42602;SDS011;28233;55.748;48.752;2023-05-18T07:49:41;2.63;;;0.90;;
42602;SDS011;28233;55.748;48.752;2023-05-18T07:51:45;3.22;;;1.15;;
42602;SDS011;28233;55.748;48.752;2023-05-18T07:53:48;3.75;;;1.02;;
42602;SDS011;28233;55.748;48.752;2023-05-18T07:55:51;4.45;;;1.02;;
42602;SDS011;28233;55.748;48.752;2023-05-18T07:57:53;3.90;;;1.10;;
42602;SDS011;28233;55.748;48.752;2023-05-18T07:59:56;3.05;;;1.20;;
42602;SDS011;28233;55.748;48.752;2023-05-18T08:01:59;3.03;;;1.58;;
42602;SDS011;28233;55.748;48.752;2023-05-18T08:04:03;7.03;;;1.00;;
42602;SDS011;28233;55.748;48.752;2023-05-18T08:06:06;2.13;;;0.90;;
42602;SDS011;28233;55.748;48.752;2023-05-18T08:08:09;3.17;;;1.08;;
42602;SDS011;28233;55.748;48.752;2023-05-18T08:10:16;6.97;;;1.60;;
42602;SDS011;28233;55.748;48.752;2023-05-18T08:12:19;2.30;;;0.90;;
42602;SDS011;28233;55.748;48.752;2023-05-18T08:14:22;2.72;;;1.10;;
42602;SDS011;28233;55.748;48.752;2023-05-18T08:16:25;2.28;;;1.60;;
42602;SDS011;28233;55.748;48.752;2023-05-18T08:18:28;5.47;;;0.88;;
42602;SDS011;28233;55.748;48.752;2023-05-18T08:20:31;1.48;;;1.00;;
42602;SDS011;28233;55.748;48.752;2023-05-18T08:22:33;2.97;;;1.00;;
42602;SDS011;28233;55.748;48.752;2023-05-18T08:24:36;4.47;;;1.13;;
42602;SDS011;28233;55.748;48.752;2023-05-18T08:26:40;4.22;;;1.30;;
42602;SDS011;28233;55.748;48.752;2023-05-18T08:28:42;2.17;;;0.90;;
42602;SDS011;28233;55.748;48.752;2023-05-18T08:30:46;2.50;;;0.82;;
42602;SDS011;28233;55.748;48.752;2023-05-18T08:32:49;6.10;;;1.05;;
42602;SDS011;28233;55.748;48.752;2023-05-18T08:34:52;3.10;;;0.88;;
42602;SDS011;28233;55.748;48.752;2023-05-18T08:36:55;6.05;;;0.90;;
42602;SDS011;28233;55.748;48.752;2023-05-18T08:38:58;1.50;;;0.50;;
42602;SDS011;28233;55.748;48.752;2023-05-18T08:41:04;3.08;;;1.00;;
42602;SDS011;28233;55.748;48.752;2023-05-18T08:43:20;1.70;;;1.13;;
42602;SDS011;28233;55.748;48.752;2023-05-18T08:47:49;2.38;;;0.82;;
42602;SDS011;28233;55.748;48.752;2023-05-18T08:49:54;2.30;;;0.80;;
42602;SDS011;28233;55.748;48.752;2023-05-18T08:51:59;3.42;;;1.10;;
42602;SDS011;28233;55.748;48.752;2023-05-18T08:54:06;1.90;;;1.30;;
42602;SDS011;28233;55.748;48.752;2023-05-18T08:56:11;2.42;;;1.08;;
42602;SDS011;28233;55.748;48.752;2023-05-18T08:58:16;1.27;;;0.73;;
42602;SDS011;28233;55.748;48.752;2023-05-18T09:00:22;4.57;;;1.17;;
42602;SDS011;28233;55.748;48.752;2023-05-18T09:02:26;1.52;;;0.75;;
42602;SDS011;28233;55.748;48.752;2023-05-18T09:04:30;8.63;;;1.25;;
42602;SDS011;28233;55.748;48.752;2023-05-18T09:06:37;2.70;;;0.90;;
42602;SDS011;28233;55.748;48.752;2023-05-18T09:08:40;3.88;;;1.38;;
42602;SDS011;28233;55.748;48.752;2023-05-18T09:10:43;2.92;;;0.80;;
42602;SDS011;28233;55.748;48.752;2023-05-18T09:12:50;2.97;;;0.90;;
42602;SDS011;28233;55.748;48.752;2023-05-18T09:14:53;2.08;;;0.80;;
42602;SDS011;28233;55.748;48.752;2023-05-18T09:16:57;2.15;;;1.20;;
42602;SDS011;28233;55.748;48.752;2023-05-18T09:19:00;4.55;;;1.15;;
42602;SDS011;28233;55.748;48.752;2023-05-18T09:21:03;3.08;;;1.17;;
42602;SDS011;28233;55.748;48.752;2023-05-18T09:23:05;3.30;;;1.25;;
42602;SDS011;28233;55.748;48.752;2023-05-18T09:25:09;1.42;;;0.85;;
42602;SDS011;28233;55.748;48.752;2023-05-18T09:27:12;9.43;;;1.50;;
42602;SDS011;28233;55.748;48.752;2023-05-18T09:29:15;5.82;;;1.60;;
42602;SDS011;28233;55.748;48.752;2023-05-18T09:31:20;2.78;;;2.25;;
42602;SDS011;28233;55.748;48.752;2023-05-18T09:33:26;5.78;;;2.42;;
42602;SDS011;28233;55.748;48.752;2023-05-18T09:35:35;6.28;;;1.80;;
42602;SDS011;28233;55.748;48.752;2023-05-18T09:37:41;5.85;;;1.73;;
42602;SDS011;28233;55.748;48.752;2023-05-18T09:39:56;12.30;;;1.48;;
42602;SDS011;28233;55.748;48.752;2023-05-18T09:42:02;10.93;;;1.88;;
42602;SDS011;28233;55.748;48.752;2023-05-18T09:44:07;2.92;;;1.98;;
42602;SDS011;28233;55.748;48.752;2023-05-18T09:46:11;9.75;;;1.50;;
42602;SDS011;28233;55.748;48.752;2023-05-18T09:48:15;4.63;;;1.77;;
42602;SDS011;28233;55.748;48.752;2023-05-18T09:50:21;6.15;;;1.85;;
42602;SDS011;28233;55.748;48.752;2023-05-18T09:52:25;4.97;;;2.50;;
42602;SDS011;28233;55.748;48.752;2023-05-18T09:54:28;3.95;;;2.45;;
42602;SDS011;28233;55.748;48.752;2023-05-18T09:56:30;7.70;;;3.00;;
42602;SDS011;28233;55.748;48.752;2023-05-18T09:58:40;7.90;;;2.85;;
42602;SDS011;28233;55.748;48.752;2023-05-18T10:00:47;4.45;;;3.55;;
42602;SDS011;28233;55.748;48.752;2023-05-18T10:02:53;4.22;;;2.58;;
42602;SDS011;28233;55.748;48.752;2023-05-18T10:04:57;4.65;;;3.10;;
42602;SDS011;28233;55.748;48.752;2023-05-18T10:07:00;7.65;;;3.45;;
42602;SDS011;28233;55.748;48.752;2023-05-18T10:09:04;7.15;;;3.45;;
42602;SDS011;28233;55.748;48.752;2023-05-18T10:11:18;5.30;;;3.03;;
42602;SDS011;28233;55.748;48.752;2023-05-18T10:13:21;5.07;;;3.10;;
42602;SDS011;28233;55.748;48.752;2023-05-18T10:15:28;7.72;;;3.75;;
42602;SDS011;28233;55.748;48.752;2023-05-18T10:17:31;6.63;;;3.60;;
42602;SDS011;28233;55.748;48.752;2023-05-18T10:19:35;7.47;;;4.05;;
42602;SDS011;28233;55.748;48.752;2023-05-18T10:21:39;8.43;;;3.90;;
42602;SDS011;28233;55.748;48.752;2023-05-18T10:23:43;8.30;;;3.75;;
42602;SDS011;28233;55.748;48.752;2023-05-18T10:25:48;6.75;;;3.30;;
42602;SDS011;28233;55.748;48.752;2023-05-18T10:27:56;9.02;;;4.00;;
42602;SDS011;28233;55.748;48.752;2023-05-18T10:30:02;6.55;;;3.40;;
42602;SDS011;28233;55.748;48.752;2023-05-18T10:32:10;7.07;;;3.35;;
42602;SDS011;28233;55.748;48.752;2023-05-18T10:34:14;12.82;;;3.42;;
42602;SDS011;28233;55.748;48.752;2023-05-18T10:36:19;9.02;;;3.95;;
42602;SDS011;28233;55.748;48.752;2023-05-18T10:38:26;6.70;;;3.83;;
42602;SDS011;28233;55.748;48.752;2023-05-18T10:40:30;6.68;;;4.28;;
42602;SDS011;28233;55.748;48.752;2023-05-18T10:42:35;8.18;;;4.57;;
42602;SDS011;28233;55.748;48.752;2023-05-18T10:44:39;12.57;;;4.10;;
42602;SDS011;28233;55.748;48.752;2023-05-18T10:46:42;7.28;;;3.58;;
42602;SDS011;28233;55.748;48.752;2023-05-18T10:48:45;6.82;;;4.22;;
42602;SDS011;28233;55.748;48.752;2023-05-18T10:50:53;9.82;;;3.90;;
42602;SDS011;28233;55.748;48.752;2023-05-18T10:52:58;7.70;;;4.53;;
42602;SDS011;28233;55.748;48.752;2023-05-18T10:55:01;10.43;;;4.47;;
42602;SDS011;28233;55.748;48.752;2023-05-18T10:57:11;8.85;;;4.00;;
42602;SDS011;28233;55.748;48.752;2023-05-18T10:59:21;8.60;;;4.07;;
42602;SDS011;28233;55.748;48.752;2023-05-18T11:01:24;6.50;;;3.38;;
42602;SDS011;28233;55.748;48.752;2023-05-18T11:03:27;10.07;;;4.30;;
42602;SDS011;28233;55.748;48.752;2023-05-18T11:05:33;7.78;;;4.03;;
42602;SDS011;28233;55.748;48.752;2023-05-18T11:07:37;7.72;;;4.20;;
42602;SDS011;28233;55.748;48.752;2023-05-18T11:09:40;8.75;;;4.60;;
42602;SDS011;28233;55.748;48.752;2023-05-18T11:11:55;9.00;;;4.13;;
42602;SDS011;28233;55.748;48.752;2023-05-18T11:13:59;5.65;;;4.05;;
42602;SDS011;28233;55.748;48.752;2023-05-18T11:16:04;7.20;;;4.20;;
42602;SDS011;28233;55.748;48.752;2023-05-18T11:18:13;11.70;;;4.95;;
42602;SDS011;28233;55.748;48.752;2023-05-18T11:20:18;11.07;;;4.55;;
42602;SDS011;28233;55.748;48.752;2023-05-18T11:22:45;6.97;;;3.78;;
42602;SDS011;28233;55.748;48.752;2023-05-18T11:24:52;12.38;;;4.18;;
42602;SDS011;28233;55.748;48.752;2023-05-18T11:27:07;9.63;;;3.95;;
42602;SDS011;28233;55.748;48.752;2023-05-18T11:54:25;6.15;;;4.00;;
42602;SDS011;28233;55.748;48.752;2023-05-18T11:56:32;14.52;;;4.70;;
42602;SDS011;28233;55.748;48.752;2023-05-18T11:59:09;6.65;;;4.65;;
42602;SDS011;28233;55.748;48.752;2023-05-18T12:01:29;7.47;;;3.75;;
42602;SDS011;28233;55.748;48.752;2023-05-18T12:03:45;8.45;;;3.72;;
42602;SDS011;28233;55.748;48.752;2023-05-18T12:06:03;8.20;;;4.30;;
42602;SDS011;28233;55.748;48.752;2023-05-18T12:08:22;5.30;;;3.67;;
42602;SDS011;28233;55.748;48.752;2023-05-18T12:10:44;8.63;;;4.35;;
42602;SDS011;28233;55.748;48.752;2023-05-18T12:13:04;5.50;;;3.90;;
42602;SDS011;28233;55.748;48.752;2023-05-18T12:15:21;8.10;;;4.63;;
42602;SDS011;28233;55.748;48.752;2023-05-18T12:17:39;8.27;;;3.70;;
42602;SDS011;28233;55.748;48.752;2023-05-18T12:19:56;6.45;;;4.00;;
42602;SDS011;28233;55.748;48.752;2023-05-18T12:22:09;7.50;;;4.07;;
42602;SDS011;28233;55.748;48.752;2023-05-18T12:24:26;7.07;;;3.78;;
42602;SDS011;28233;55.748;48.752;2023-05-18T12:26:31;5.43;;;4.03;;
42602;SDS011;28233;55.748;48.752;2023-05-18T12:28:47;8.75;;;3.85;;
42602;SDS011;28233;55.748;48.752;2023-05-18T12:31:03;12.40;;;4.18;;
42602;SDS011;28233;55.748;48.752;2023-05-18T12:33:24;6.25;;;4.78;;
42602;SDS011;28233;55.748;48.752;2023-05-18T12:35:40;9.15;;;4.50;;
42602;SDS011;28233;55.748;48.752;2023-05-18T12:37:57;8.23;;;4.30;;
42602;SDS011;28233;55.748;48.752;2023-05-18T12:40:16;6.38;;;4.10;;
42602;SDS011;28233;55.748;48.752;2023-05-18T12:42:33;6.57;;;4.18;;
42602;SDS011;28233;55.748;48.752;2023-05-18T12:44:50;5.82;;;3.60;;
42602;SDS011;28233;55.748;48.752;2023-05-18T12:47:06;8.70;;;4.60;;
42602;SDS011;28233;55.748;48.752;2023-05-18T12:49:23;7.47;;;4.10;;
42602;SDS011;28233;55.748;48.752;2023-05-18T12:51:39;6.93;;;4.28;;
42602;SDS011;28233;55.748;48.752;2023-05-18T12:53:55;6.30;;;3.95;;
42602;SDS011;28233;55.748;48.752;2023-05-18T12:55:59;8.43;;;3.83;;
42602;SDS011;28233;55.748;48.752;2023-05-18T12:58:20;6.93;;;4.00;;
42602;SDS011;28233;55.748;48.752;2023-05-18T13:00:38;5.68;;;3.88;;
42602;SDS011;28233;55.748;48.752;2023-05-18T13:02:54;5.90;;;3.65;;
42602;SDS011;28233;55.748;48.752;2023-05-18T13:05:23;8.15;;;4.25;;
42602;SDS011;28233;55.748;48.752;2023-05-18T13:07:43;8.63;;;4.65;;